Time;durP1;ratioP1;P1;durP2;ratioP2;P2;SDS_P1;SDS_P2;PMS_P1;PMS_P2;Temp;Humidity;BMP_temperature;BMP_pressure;BME280_temperature;BME280_humidity;BME280_pressure;Samples;Min_cycle;Max_cycle;Signal;HPM_P1;HPM_P2
2022/05/06 00:00:04;;;;;;;;;;;;;;;12.24;59.12;101955.34;5058930;28;19947;-78
2022/05/06 00:02:29;;;;;;;;;;;;;;;12.22;59.14;101954.47;5054637;28;19929;-78
2022/05/06 00:04:54;;;;;;;;;;;;;;;12.16;59.32;101952.81;5059420;28;19930;-78
2022/05/06 00:07:20;;;;;;;;;;;;;;;12.20;59.12;101956.25;5060813;28;19925;-78
2022/05/06 00:09:46;;;;;;;;;;;;;;;12.17;59.13;101959.75;5059750;28;20016;-78
2022/05/06 00:12:12;;;;;;;;;;;;;;;11.99;60.21;101958.16;5057664;28;20377;-78
2022/05/06 00:14:38;;;;;;;;;;;;;;;12.21;59.21;101966.66;5059015;28;19930;-78
2022/05/06 00:17:03;;;;;;;;;;;;;;;12.22;59.42;101960.56;5060027;28;20328;-80
2022/05/06 00:19:29;;;;;;;;;;;;;;;12.08;58.91;101965.03;5055556;28;19913;-80
2022/05/06 00:21:54;;;;;;;;;;;;;;;11.98;59.10;101969.44;5060381;28;20398;-80
2022/05/06 00:24:19;;;;;;;;;;;;;;;11.83;60.53;101969.56;5058698;28;19971;-80
2022/05/06 00:26:45;;;;;;;;;;;;;;;12.03;60.15;101966.81;5055692;28;19936;-80
2022/05/06 00:29:10;;;;;;;;;;;;;;;11.96;60.11;101967.72;5062483;28;20293;-77
2022/05/06 00:31:35;;;;;;;;;;;;;;;11.90;60.23;101968.66;5065020;28;19956;-78
2022/05/06 00:34:00;;;;;;;;;;;;;;;11.93;60.22;101973.84;5064434;28;20015;-77
2022/05/06 00:36:26;;;;;;;;;;;;;;;11.83;60.34;101969.56;5058473;28;20591;-77
2022/05/06 00:38:51;;;;;;;;;;;;;;;11.94;60.15;101964.28;5065316;28;20027;-78
2022/05/06 00:41:17;;;;;;;;;;;;;;;11.96;59.63;101966.00;5065176;28;19928;-80
2022/05/06 00:43:43;;;;;;;;;;;;;;;11.99;60.00;101975.53;5067364;28;20760;-80
2022/05/06 00:46:15;;;;;;;;;;;;;;;11.99;60.04;101970.31;5068778;28;19924;-80
2022/05/06 00:48:42;;;;;;;;;;;;;;;12.06;59.72;101967.66;5067407;28;20032;-80
2022/05/06 00:51:09;;;;;;;;;;;;;;;11.91;59.58;101975.59;5066285;28;19931;-77
2022/05/06 00:53:35;;;;;;;;;;;;;;;12.01;59.12;101971.16;5068976;28;21501;-77
2022/05/06 00:56:00;;;;;;;;;;;;;;;11.80;59.74;101980.00;5058858;28;20338;-78
2022/05/06 00:58:29;;;;;;;;;;;;;;;11.81;59.53;101980.84;5064478;28;19923;-78
2022/05/06 01:00:54;;;;;;;;;;;;;;;11.87;59.26;101983.41;5061887;28;20006;-80
2022/05/06 01:03:19;;;;;;;;;;;;;;;11.75;60.04;101991.31;5058036;28;20376;-80
2022/05/06 01:05:45;;;;;;;;;;;;;;;11.79;60.25;101987.81;5061800;28;19920;-80
2022/05/06 01:08:10;;;;;;;;;;;;;;;11.90;59.98;101981.66;5067560;28;19947;-80
2022/05/06 01:10:37;;;;;;;;;;;;;;;11.93;59.35;101979.03;5066371;28;20850;-80
2022/05/06 01:13:02;;;;;;;;;;;;;;;11.77;59.77;101980.00;5070067;28;19924;-74
2022/05/06 01:15:28;;;;;;;;;;;;;;;11.72;59.14;101984.38;5064794;28;19931;-74
2022/05/06 01:17:55;;;;;;;;;;;;;;;11.75;59.30;101980.91;5062946;28;20353;-74
2022/05/06 01:20:21;;;;;;;;;;;;;;;11.51;60.01;101980.19;5063613;28;19924;-77
2022/05/06 01:22:48;;;;;;;;;;;;;;;11.84;58.40;101978.22;5055867;28;19951;-78
2022/05/06 01:25:14;;;;;;;;;;;;;;;11.75;58.20;101975.69;5061840;28;19924;-78
2022/05/06 01:28:01;;;;;;;;;;;;;;;11.74;58.99;101977.44;5067850;28;20341;-74
2022/05/06 01:30:35;;;;;;;;;;;;;;;11.73;58.78;101980.94;5060251;28;20313;-74
2022/05/06 01:33:01;;;;;;;;;;;;;;;11.78;58.78;101980.88;5059667;28;19920;-74
2022/05/06 01:35:28;;;;;;;;;;;;;;;11.69;59.23;101974.00;5057842;28;19951;-77
2022/05/06 01:37:54;;;;;;;;;;;;;;;11.69;59.41;101978.34;5059929;28;19924;-77
2022/05/06 01:40:21;;;;;;;;;;;;;;;11.53;59.80;101981.03;5062130;28;19928;-77
2022/05/06 01:42:46;;;;;;;;;;;;;;;11.48;59.54;101974.13;5061683;28;19980;-80
2022/05/06 01:45:15;;;;;;;;;;;;;;;11.67;59.33;101977.50;5060227;28;20011;-78
2022/05/06 01:47:41;;;;;;;;;;;;;;;11.59;59.13;101977.56;5060561;28;19931;-78
2022/05/06 01:50:08;;;;;;;;;;;;;;;11.55;59.45;101981.91;5062935;28;19924;-74
2022/05/06 01:52:35;;;;;;;;;;;;;;;11.65;59.06;101981.84;5065178;28;19927;-74
2022/05/06 01:55:01;;;;;;;;;;;;;;;11.64;58.96;101978.38;5064758;28;20385;-74
2022/05/06 01:57:26;;;;;;;;;;;;;;;11.67;58.55;101986.16;5064980;28;19978;-74
2022/05/06 01:59:52;;;;;;;;;;;;;;;11.56;58.92;101990.56;5064877;28;19928;-77
2022/05/06 02:02:18;;;;;;;;;;;;;;;11.61;58.69;101993.13;5062486;28;20013;-77
2022/05/06 02:07:27;;;;;;;;;;;;;;;11.55;59.18;101994.03;5059146;28;19974;-78
2022/05/06 02:09:52;;;;;;;;;;;;;;;11.52;59.05;101987.13;5059414;28;19928;-78
2022/05/06 02:12:17;;;;;;;;;;;;;;;11.63;58.57;101986.19;5062904;28;19924;-78
2022/05/06 02:14:43;;;;;;;;;;;;;;;11.58;58.86;101996.63;5064347;28;19924;-78
2022/05/06 02:17:08;;;;;;;;;;;;;;;11.53;58.73;101991.44;5061129;28;19928;-80
2022/05/06 02:19:33;;;;;;;;;;;;;;;11.59;58.67;101995.78;5059458;28;20019;-74
2022/05/06 02:21:59;;;;;;;;;;;;;;;11.50;58.92;101991.44;5062062;28;20630;-74
2022/05/06 02:24:24;;;;;;;;;;;;;;;11.50;58.52;101990.63;5066938;28;19989;-74
2022/05/06 02:26:49;;;;;;;;;;;;;;;11.49;58.26;101992.34;5064627;28;20039;-74
2022/05/06 02:29:14;;;;;;;;;;;;;;;11.33;58.88;101995.00;5058806;28;20338;-80
2022/05/06 02:34:24;;;;;;;;;;;;;;;11.36;58.56;101990.66;5067116;28;20391;-74
2022/05/06 02:36:49;;;;;;;;;;;;;;;11.51;58.11;101992.31;5063688;28;19968;-78
2022/05/06 02:39:14;;;;;;;;;;;;;;;11.46;58.25;101991.50;5061408;28;19924;-78
2022/05/06 02:41:40;;;;;;;;;;;;;;;11.45;58.32;101990.63;5059706;28;19924;-78
2022/05/06 02:44:05;;;;;;;;;;;;;;;11.37;58.38;101992.41;5060483;28;19951;-78
2022/05/06 02:46:31;;;;;;;;;;;;;;;11.19;58.83;101996.78;5061245;28;20323;-78
2022/05/06 02:48:57;;;;;;;;;;;;;;;11.26;58.25;101998.50;5062758;28;19924;-74
2022/05/06 02:51:22;;;;;;;;;;;;;;;11.34;58.27;101992.41;5062987;28;20403;-77
2022/05/06 02:53:47;;;;;;;;;;;;;;;11.26;58.14;101994.16;5068900;28;19921;-74
2022/05/06 02:56:12;;;;;;;;;;;;;;;11.18;58.76;101989.84;5061475;28;19932;-74
2022/05/06 02:58:38;;;;;;;;;;;;;;;11.26;58.41;101990.69;5058469;28;20015;-74
2022/05/06 03:01:03;;;;;;;;;;;;;;;11.00;58.80;101989.03;5060673;28;19981;-77
2022/05/06 03:03:30;;;;;;;;;;;;;;;11.18;58.97;101985.50;5056175;28;19928;-78
2022/05/06 03:05:55;;;;;;;;;;;;;;;11.11;58.42;101985.56;5061332;28;20434;-78
2022/05/06 03:08:20;;;;;;;;;;;;;;;11.08;58.74;101985.56;5060751;28;19921;-78
2022/05/06 03:10:46;;;;;;;;;;;;;;;11.11;58.41;101982.94;5062067;28;20416;-78
2022/05/06 03:13:13;;;;;;;;;;;;;;;11.24;58.43;101987.22;5060363;28;19924;-78
2022/05/06 03:15:41;;;;;;;;;;;;;;;11.14;58.76;101988.13;5059996;28;20378;-78
2022/05/06 03:18:06;;;;;;;;;;;;;;;11.25;58.51;101987.22;5065105;28;19924;-80
2022/05/06 03:20:31;;;;;;;;;;;;;;;11.18;58.58;101987.22;5061094;28;19978;-80
2022/05/06 03:22:57;;;;;;;;;;;;;;;11.06;58.98;101980.34;5063393;28;19931;-78
2022/05/06 03:25:22;;;;;;;;;;;;;;;10.89;58.89;101980.41;5062364;28;19928;-78
2022/05/06 03:27:59;;;;;;;;;;;;;;;11.02;58.54;101976.91;5061834;28;19925;-78
2022/05/06 03:30:26;;;;;;;;;;;;;;;10.94;59.01;101973.47;5058550;28;19933;-78
2022/05/06 03:32:51;;;;;;;;;;;;;;;11.16;58.54;101982.06;5060435;28;19931;-77
2022/05/06 03:35:17;;;;;;;;;;;;;;;11.14;57.82;101981.22;5060810;28;19924;-77
2022/05/06 03:37:44;;;;;;;;;;;;;;;11.03;58.24;101986.44;5060043;28;19924;-77
2022/05/06 03:40:10;;;;;;;;;;;;;;;11.08;58.02;101983.84;5062998;28;19929;-80
2022/05/06 03:42:35;;;;;;;;;;;;;;;11.15;58.55;101987.25;5064604;28;19931;-78
2022/05/06 03:45:02;;;;;;;;;;;;;;;11.14;58.08;101981.22;5058899;28;19948;-78
2022/05/06 03:47:27;;;;;;;;;;;;;;;11.03;58.11;101991.63;5056266;28;19947;-77
2022/05/06 03:52:37;;;;;;;;;;;;;;;11.07;57.80;101983.81;5053982;28;20450;-77
2022/05/06 03:55:02;;;;;;;;;;;;;;;11.05;58.17;101993.38;5057875;28;19944;-77
2022/05/06 03:57:28;;;;;;;;;;;;;;;10.97;58.45;101996.84;5058933;28;20282;-77
2022/05/06 03:59:55;;;;;;;;;;;;;;;10.99;58.49;101987.34;5045510;28;19924;-77
2022/05/06 04:02:20;;;;;;;;;;;;;;;11.02;58.13;101991.66;5065725;28;19973;-74
2022/05/06 04:04:46;;;;;;;;;;;;;;;10.95;58.12;101985.59;5062273;28;19924;-80
2022/05/06 04:07:11;;;;;;;;;;;;;;;10.75;58.72;101992.59;5062286;28;19925;-80
2022/05/06 04:09:36;;;;;;;;;;;;;;;10.90;58.53;101994.28;5061890;28;19974;-78
2022/05/06 04:12:03;;;;;;;;;;;;;;;10.98;58.44;101998.59;5061850;28;19936;-80
2022/05/06 04:14:29;;;;;;;;;;;;;;;10.85;58.18;101999.47;5066591;28;20297;-78
2022/05/06 04:16:54;;;;;;;;;;;;;;;10.84;58.55;102002.09;5062359;28;19943;-78
2022/05/06 04:19:19;;;;;;;;;;;;;;;10.83;58.30;102010.75;5063552;28;19928;-80
2022/05/06 04:24:28;;;;;;;;;;;;;;;10.79;58.75;102009.06;5057720;28;19973;-80
2022/05/06 04:26:54;;;;;;;;;;;;;;;10.71;59.37;102009.06;5066375;28;19932;-80
2022/05/06 04:29:19;;;;;;;;;;;;;;;10.81;58.65;102015.97;5066166;28;19935;-80
2022/05/06 04:31:44;;;;;;;;;;;;;;;10.70;58.94;102007.31;5068866;28;19924;-80
2022/05/06 04:34:09;;;;;;;;;;;;;;;10.75;59.42;102018.59;5066278;28;19926;-80
2022/05/06 04:36:38;;;;;;;;;;;;;;;10.69;59.05;102021.19;5066546;28;19932;-80
2022/05/06 04:39:04;;;;;;;;;;;;;;;10.68;58.93;102023.78;5063032;28;19924;-80
2022/05/06 04:41:29;;;;;;;;;;;;;;;10.72;59.32;102030.72;5066325;28;19935;-78
2022/05/06 04:43:54;;;;;;;;;;;;;;;10.84;58.68;102035.91;5061299;28;19927;-78
2022/05/06 04:46:19;;;;;;;;;;;;;;;10.64;59.16;102032.47;5063471;28;19917;-78
2022/05/06 04:48:45;;;;;;;;;;;;;;;10.83;58.74;102032.41;5064601;28;19924;-78
2022/05/06 04:51:10;;;;;;;;;;;;;;;10.82;59.08;102037.63;5064239;28;19932;-77
2022/05/06 04:53:36;;;;;;;;;;;;;;;10.55;59.85;102041.13;5063494;28;20007;-77
2022/05/06 04:56:01;;;;;;;;;;;;;;;10.72;59.36;102036.78;5064466;28;19924;-77
2022/05/06 04:58:28;;;;;;;;;;;;;;;10.65;59.61;102037.66;5064531;28;19974;-77
2022/05/06 05:00:53;;;;;;;;;;;;;;;10.76;59.57;102046.28;5065155;28;20545;-77
2022/05/06 05:03:21;;;;;;;;;;;;;;;10.84;59.53;102046.28;5060292;28;20032;-77
2022/05/06 05:05:47;;;;;;;;;;;;;;;10.73;60.14;102048.88;5064807;28;19925;-77
2022/05/06 05:08:12;;;;;;;;;;;;;;;10.83;59.92;102050.63;5063749;28;19924;-77
2022/05/06 05:10:38;;;;;;;;;;;;;;;10.81;60.03;102052.38;5063576;28;19925;-77
2022/05/06 05:13:03;;;;;;;;;;;;;;;10.96;59.67;102057.53;5062293;28;20023;-78
2022/05/06 05:15:28;;;;;;;;;;;;;;;10.84;59.85;102056.69;5064210;28;20020;-78
2022/05/06 05:17:54;;;;;;;;;;;;;;;10.99;60.09;102059.25;5065357;28;19928;-78
2022/05/06 05:20:19;;;;;;;;;;;;;;;10.96;59.98;102062.75;5061522;28;19924;-74
2022/05/06 05:22:44;;;;;;;;;;;;;;;10.91;60.70;102067.06;5060658;28;19982;-74
2022/05/06 05:25:10;;;;;;;;;;;;;;;10.94;60.31;102068.78;5080760;28;19981;-74
2022/05/06 05:27:38;;;;;;;;;;;;;;;11.03;59.92;102069.63;5067130;28;19921;-74
2022/05/06 05:30:04;;;;;;;;;;;;;;;11.13;60.00;102075.69;5062649;28;20362;-74
2022/05/06 05:32:30;;;;;;;;;;;;;;;10.94;60.30;102072.25;5065194;28;19990;-74
2022/05/06 05:34:55;;;;;;;;;;;;;;;10.95;60.61;102073.13;5065543;28;19912;-77
2022/05/06 05:37:22;;;;;;;;;;;;;;;11.09;61.11;102075.72;5068403;28;19923;-80
2022/05/06 05:39:47;;;;;;;;;;;;;;;11.12;61.02;102073.09;5064940;28;19928;-80
2022/05/06 05:42:19;;;;;;;;;;;;;;;11.05;61.37;102080.06;5061507;28;19946;-80
2022/05/06 05:50:12;;;;;;;;;;;;;;;11.14;61.82;102080.03;5062117;28;19953;-80
2022/05/06 05:52:37;;;;;;;;;;;;;;;11.03;62.30;102087.84;5064343;28;19932;-80
2022/05/06 05:55:03;;;;;;;;;;;;;;;11.16;62.07;102082.63;5066587;28;19982;-77
2022/05/06 05:57:29;;;;;;;;;;;;;;;11.35;62.01;102087.81;5065799;28;19998;-78
2022/05/06 05:59:55;;;;;;;;;;;;;;;11.18;61.58;102091.25;5064714;28;19931;-74
2022/05/06 06:02:20;;;;;;;;;;;;;;;11.19;62.16;102083.47;5062046;28;19969;-78
2022/05/06 06:04:46;;;;;;;;;;;;;;;11.11;63.17;102080.03;5064125;28;19924;-78
2022/05/06 06:07:11;;;;;;;;;;;;;;;11.24;62.92;102083.44;5061991;28;20398;-74
2022/05/06 06:09:36;;;;;;;;;;;;;;;11.34;62.88;102080.88;5061472;28;19952;-74
2022/05/06 06:12:02;;;;;;;;;;;;;;;11.38;62.52;102084.34;5064392;28;20465;-81
2022/05/06 06:14:27;;;;;;;;;;;;;;;11.40;62.68;102078.25;5065367;28;19921;-78
2022/05/06 06:16:52;;;;;;;;;;;;;;;11.38;63.27;102077.38;5066563;28;19920;-78
2022/05/06 06:19:18;;;;;;;;;;;;;;;11.49;63.21;102083.41;5067034;28;20449;-81
2022/05/06 06:21:43;;;;;;;;;;;;;;;11.42;62.66;102073.91;5063482;28;20295;-81
2022/05/06 06:24:09;;;;;;;;;;;;;;;11.47;63.28;102074.72;5066007;28;20039;-78
2022/05/06 06:26:35;;;;;;;;;;;;;;;11.42;63.17;102073.91;5064172;28;19948;-78
2022/05/06 06:29:01;;;;;;;;;;;;;;;11.53;63.33;102073.88;5063787;28;19945;-78
2022/05/06 06:31:30;;;;;;;;;;;;;;;11.60;63.39;102078.16;5061251;28;20366;-77
2022/05/06 06:33:56;;;;;;;;;;;;;;;11.56;63.90;102079.06;5063780;28;20009;-81
2022/05/06 06:36:22;;;;;;;;;;;;;;;11.68;63.04;102078.13;5065534;28;20369;-81
2022/05/06 06:38:47;;;;;;;;;;;;;;;11.64;63.42;102085.09;5062326;28;19924;-80
2022/05/06 06:41:12;;;;;;;;;;;;;;;11.77;63.18;102084.13;5059189;28;20154;-81
2022/05/06 06:43:38;;;;;;;;;;;;;;;11.82;63.09;102085.00;5064396;28;20022;-81
2022/05/06 06:46:06;;;;;;;;;;;;;;;11.73;62.84;102092.00;5063264;28;20285;-81
2022/05/06 06:48:32;;;;;;;;;;;;;;;11.80;64.19;102096.31;5065846;28;19924;-74
2022/05/06 06:50:58;;;;;;;;;;;;;;;11.89;63.68;102089.28;5066007;28;19973;-74
2022/05/06 06:53:23;;;;;;;;;;;;;;;11.82;63.47;102089.34;5064655;28;20218;-74
2022/05/06 06:55:49;;;;;;;;;;;;;;;11.91;64.03;102097.09;5061574;28;20453;-74
2022/05/06 06:58:14;;;;;;;;;;;;;;;11.99;63.68;102093.59;5064440;28;20445;-78
2022/05/06 07:00:42;;;;;;;;;;;;;;;12.05;63.89;102098.75;5065345;28;19928;-78
2022/05/06 07:03:08;;;;;;;;;;;;;;;11.84;65.22;102101.47;5063992;28;19924;-78
2022/05/06 07:05:33;;;;;;;;;;;;;;;11.97;63.98;102097.06;5063666;28;19931;-78
2022/05/06 07:13:28;;;;;;;;;;;;;;;12.11;63.33;102098.72;5057816;28;21370;-78
2022/05/06 07:15:53;;;;;;;;;;;;;;;12.04;65.15;102101.34;5062048;28;19927;-78
2022/05/06 07:18:19;;;;;;;;;;;;;;;12.11;63.83;102100.44;5063203;28;19924;-78
2022/05/06 07:20:44;;;;;;;;;;;;;;;12.24;64.63;102096.03;5060707;28;19997;-78
2022/05/06 07:23:10;;;;;;;;;;;;;;;12.20;64.28;102102.13;5067061;28;19928;-74
2022/05/06 07:25:35;;;;;;;;;;;;;;;12.21;65.08;102093.44;5062275;28;20392;-74
2022/05/06 07:28:01;;;;;;;;;;;;;;;12.24;64.33;102102.13;5064367;28;19985;-74
2022/05/06 07:30:26;;;;;;;;;;;;;;;12.26;64.39;102096.88;5064236;28;20281;-74
2022/05/06 07:32:53;;;;;;;;;;;;;;;12.29;64.87;102091.66;5066878;28;20259;-74
2022/05/06 07:35:20;;;;;;;;;;;;;;;12.28;65.50;102090.78;5066232;28;19944;-77
2022/05/06 07:37:45;;;;;;;;;;;;;;;12.34;64.56;102093.34;5062772;28;19929;-74
2022/05/06 07:40:11;;;;;;;;;;;;;;;12.38;64.29;102089.84;5065274;28;19929;-81
2022/05/06 07:42:36;;;;;;;;;;;;;;;12.38;64.50;102095.06;5059993;28;19978;-81
2022/05/06 07:45:02;;;;;;;;;;;;;;;12.44;64.48;102094.16;5060128;28;20402;-79
2022/05/06 07:47:27;;;;;;;;;;;;;;;12.50;64.24;102094.97;5058717;28;19971;-78
2022/05/06 07:49:53;;;;;;;;;;;;;;;12.54;64.11;102088.03;5060782;28;19959;-78
2022/05/06 07:52:18;;;;;;;;;;;;;;;12.53;64.48;102091.50;5060494;28;20393;-79
2022/05/06 07:54:43;;;;;;;;;;;;;;;12.51;64.01;102082.81;5059429;28;19964;-79
2022/05/06 07:57:09;;;;;;;;;;;;;;;12.54;63.12;102081.06;5063610;28;19971;-81
2022/05/06 07:59:34;;;;;;;;;;;;;;;12.56;64.24;102086.28;5062191;28;19926;-81
2022/05/06 08:04:48;;;;;;;;;;;;;;;12.69;64.28;102076.59;5062584;28;19931;-81
2022/05/06 08:07:14;;;;;;;;;;;;;;;12.75;63.42;102077.41;5064041;28;21041;-74
2022/05/06 08:09:39;;;;;;;;;;;;;;;12.76;63.66;102070.44;5057029;28;19928;-74
2022/05/06 08:12:05;;;;;;;;;;;;;;;12.75;64.59;102077.41;5061886;28;19929;-74
2022/05/06 08:14:30;;;;;;;;;;;;;;;12.82;63.48;102076.47;5064042;28;19947;-74
2022/05/06 08:16:55;;;;;;;;;;;;;;;12.81;63.65;102074.72;5061659;28;19920;-80
2022/05/06 08:19:21;;;;;;;;;;;;;;;12.85;62.21;102072.97;5064556;28;20078;-81
2022/05/06 08:21:46;;;;;;;;;;;;;;;12.90;62.09;102073.81;5067718;28;19959;-81
2022/05/06 08:24:12;;;;;;;;;;;;;;;12.88;62.66;102076.41;5061642;28;20411;-81
2022/05/06 08:26:37;;;;;;;;;;;;;;;12.95;62.44;102077.22;5066254;28;20827;-80
2022/05/06 08:29:03;;;;;;;;;;;;;;;12.92;63.04;102078.13;5061196;28;19921;-78
2022/05/06 08:31:31;;;;;;;;;;;;;;;12.94;62.26;102075.47;5067530;28;19931;-74
2022/05/06 08:33:57;;;;;;;;;;;;;;;13.02;61.61;102078.88;5060209;28;19971;-74
2022/05/06 08:36:23;;;;;;;;;;;;;;;13.05;61.87;102082.31;5062079;28;19921;-74
2022/05/06 08:38:49;;;;;;;;;;;;;;;13.08;61.82;102073.59;5059500;28;20483;-78
2022/05/06 08:41:14;;;;;;;;;;;;;;;13.12;61.51;102089.22;5060472;28;20075;-78
2022/05/06 08:43:40;;;;;;;;;;;;;;;13.12;60.70;102077.91;5058601;28;19924;-75
2022/05/06 08:51:39;;;;;;;;;;;;;;;13.27;61.16;102077.75;5058700;28;20010;-74
2022/05/06 08:54:04;;;;;;;;;;;;;;;13.38;61.27;102073.25;5060205;28;20358;-74
2022/05/06 08:56:31;;;;;;;;;;;;;;;13.39;61.55;102067.16;5061289;28;19924;-74
2022/05/06 08:58:58;;;;;;;;;;;;;;;13.42;61.24;102071.47;5060789;28;19959;-74
2022/05/06 09:01:23;;;;;;;;;;;;;;;13.40;60.09;102062.81;5066493;28;19978;-74
2022/05/06 09:03:49;;;;;;;;;;;;;;;13.44;60.10;102061.88;5064567;28;19924;-74
2022/05/06 09:06:19;;;;;;;;;;;;;;;13.45;60.06;102054.03;5063779;28;20468;-74
2022/05/06 09:08:45;;;;;;;;;;;;;;;13.46;59.75;102063.56;5062763;28;19925;-74
2022/05/06 09:11:11;;;;;;;;;;;;;;;13.48;59.05;102061.84;5081629;28;20320;-74
2022/05/06 09:13:37;;;;;;;;;;;;;;;13.57;59.42;102066.06;5063917;28;19974;-75
2022/05/06 09:16:39;;;;;;;;;;;;;;;13.53;59.38;102062.63;5064322;28;19981;-74
2022/05/06 09:19:09;;;;;;;;;;;;;;;13.64;58.18;102057.28;5067590;28;19932;-74
2022/05/06 09:21:34;;;;;;;;;;;;;;;13.66;57.92;102055.50;5066443;28;20309;-78
2022/05/06 09:24:14;;;;;;;;;;;;;;;13.60;57.90;102058.19;5061429;28;19929;-78
2022/05/06 09:26:40;;;;;;;;;;;;;;;13.70;57.36;102065.91;5062190;28;20426;-81
2022/05/06 09:29:05;;;;;;;;;;;;;;;13.73;55.33;102049.34;5067478;28;20015;-81
2022/05/06 09:31:30;;;;;;;;;;;;;;;13.71;55.41;102046.75;5066980;28;19959;-78
2022/05/06 09:34:08;;;;;;;;;;;;;;;13.70;55.70;102052.84;5065554;28;19924;-81
2022/05/06 09:36:33;;;;;;;;;;;;;;;13.77;54.96;102044.06;5066209;28;19940;-81
2022/05/06 09:38:59;;;;;;;;;;;;;;;13.81;54.23;102046.63;5066214;28;20461;-79
2022/05/06 09:41:25;;;;;;;;;;;;;;;13.86;52.23;102047.41;5058799;28;19924;-74
2022/05/06 09:44:03;;;;;;;;;;;;;;;13.83;53.09;102040.50;5064262;28;20309;-74
2022/05/06 09:46:29;;;;;;;;;;;;;;;13.85;52.85;102046.56;5068667;28;20565;-74
2022/05/06 09:48:56;;;;;;;;;;;;;;;13.89;53.20;102048.25;5079161;28;19924;-82
2022/05/06 09:51:34;;;;;;;;;;;;;;;13.89;52.39;102037.81;5065038;28;19977;-81
2022/05/06 09:54:00;;;;;;;;;;;;;;;13.91;52.42;102037.78;5062328;28;19928;-81
2022/05/06 09:56:26;;;;;;;;;;;;;;;13.91;50.40;102048.25;5078661;28;20008;-81
2022/05/06 09:58:53;;;;;;;;;;;;;;;13.95;49.05;102042.94;5057366;28;20008;-79
2022/05/06 10:01:19;;;;;;;;;;;;;;;13.90;53.03;102039.53;5063441;28;19928;-79
2022/05/06 10:03:45;;;;;;;;;;;;;;;14.01;49.18;102034.13;5060215;28;19928;-79
2022/05/06 10:06:10;;;;;;;;;;;;;;;13.96;50.14;102030.75;5059363;28;19925;-79
2022/05/06 10:08:37;;;;;;;;;;;;;;;13.97;50.17;102027.22;5061122;28;19972;-74
2022/05/06 10:11:04;;;;;;;;;;;;;;;14.01;49.18;102031.53;5062765;28;19924;-78
2022/05/06 10:13:31;;;;;;;;;;;;;;;14.05;47.50;102028.00;5064043;28;19924;-78
2022/05/06 10:15:56;;;;;;;;;;;;;;;14.07;46.65;102018.38;5064658;28;19925;-78
2022/05/06 10:18:35;;;;;;;;;;;;;;;14.03;48.62;102025.38;5060413;28;19928;-78
2022/05/06 10:21:04;;;;;;;;;;;;;;;14.08;48.43;102026.19;5058597;28;20541;-81
2022/05/06 10:23:48;;;;;;;;;;;;;;;14.15;47.59;102012.13;5066903;28;19924;-81
2022/05/06 10:26:32;;;;;;;;;;;;;;;14.24;46.33;102017.22;5063677;28;19924;-81
2022/05/06 10:34:29;;;;;;;;;;;;;;;14.19;47.06;102020.78;5063281;28;20029;-81
2022/05/06 10:36:55;;;;;;;;;;;;;;;14.23;46.82;102017.25;5063675;28;19924;-81
2022/05/06 10:39:21;;;;;;;;;;;;;;;14.22;47.52;102010.28;5057589;28;20025;-81
2022/05/06 10:42:06;;;;;;;;;;;;;;;14.22;47.53;102008.53;5065364;28;20409;-81
2022/05/06 10:44:34;;;;;;;;;;;;;;;14.33;45.34;102006.59;5063426;28;19931;-78
2022/05/06 10:47:00;;;;;;;;;;;;;;;14.25;45.90;102008.50;5060537;28;20373;-82
2022/05/06 10:49:34;;;;;;;;;;;;;;;14.31;45.97;102012.75;5064641;28;19923;-82
2022/05/06 10:52:15;;;;;;;;;;;;;;;14.27;45.91;102011.06;5059937;28;19932;-79
2022/05/06 10:54:41;;;;;;;;;;;;;;;14.40;45.33;102003.88;5063789;28;19969;-78
2022/05/06 10:57:07;;;;;;;;;;;;;;;14.45;46.26;102007.28;5060398;28;19924;-78
2022/05/06 10:59:53;;;;;;;;;;;;;;;14.37;46.45;102003.94;5058209;28;19929;-74
2022/05/06 11:02:22;;;;;;;;;;;;;;;14.40;44.98;101996.06;5058057;28;19932;-74
2022/05/06 11:04:50;;;;;;;;;;;;;;;14.32;46.28;101997.03;5061064;28;19974;-74
2022/05/06 11:07:17;;;;;;;;;;;;;;;14.27;46.58;101998.88;5059368;28;19924;-82
2022/05/06 11:09:42;;;;;;;;;;;;;;;14.26;47.31;101996.28;5059290;28;19966;-82
2022/05/06 11:12:08;;;;;;;;;;;;;;;14.52;44.24;101996.72;5065451;28;19964;-81
2022/05/06 11:14:33;;;;;;;;;;;;;;;14.53;44.15;101998.41;5062129;28;20390;-75
2022/05/06 11:17:15;;;;;;;;;;;;;;;14.49;44.20;101995.88;5059670;28;19960;-75
2022/05/06 11:19:40;;;;;;;;;;;;;;;14.47;43.86;101985.47;5061419;28;19923;-82
2022/05/06 11:22:09;;;;;;;;;;;;;;;14.51;43.30;101987.13;5061277;28;19921;-79
2022/05/06 11:24:35;;;;;;;;;;;;;;;14.51;43.33;101992.34;5059268;28;19935;-74
2022/05/06 11:27:17;;;;;;;;;;;;;;;14.52;45.61;101980.16;5060616;28;20019;-74
2022/05/06 11:30:00;;;;;;;;;;;;;;;14.79;41.99;101972.69;5063928;28;19920;-74
2022/05/06 11:32:29;;;;;;;;;;;;;;;14.74;43.68;101974.50;5056786;28;19954;-78
2022/05/06 11:35:01;;;;;;;;;;;;;;;14.88;41.57;101971.66;5062298;28;19928;-79
2022/05/06 11:37:30;;;;;;;;;;;;;;;14.79;41.90;101964.84;5060657;28;20576;-79
2022/05/06 11:42:39;;;;;;;;;;;;;;;14.52;45.06;101967.06;5058790;28;19977;-78
2022/05/06 11:47:49;;;;;;;;;;;;;;;14.71;45.92;101953.63;5057363;28;20459;-74
2022/05/06 11:50:14;;;;;;;;;;;;;;;14.80;45.31;101957.84;5061870;28;19928;-74
2022/05/06 11:52:40;;;;;;;;;;;;;;;14.87;45.07;101959.44;5063405;28;19920;-74
2022/05/06 11:55:06;;;;;;;;;;;;;;;14.85;44.53;101949.03;5063449;28;19970;-74
2022/05/06 11:57:33;;;;;;;;;;;;;;;15.12;41.67;101942.38;5060460;28;20687;-74
2022/05/06 11:59:59;;;;;;;;;;;;;;;15.16;39.86;101951.00;5058601;28;19932;-82
2022/05/06 12:02:24;;;;;;;;;;;;;;;15.08;41.39;101952.91;5063135;28;19929;-81
2022/05/06 12:04:49;;;;;;;;;;;;;;;15.01;41.48;101946.94;5060986;28;20094;-81
2022/05/06 12:07:14;;;;;;;;;;;;;;;14.90;43.29;101943.69;5062302;28;19913;-82
2022/05/06 12:09:43;;;;;;;;;;;;;;;14.98;41.80;101944.38;5060384;28;19967;-82
2022/05/06 12:12:10;;;;;;;;;;;;;;;14.92;42.85;101936.66;5056024;28;19970;-78
2022/05/06 12:14:36;;;;;;;;;;;;;;;14.90;43.98;101940.22;5056732;28;19929;-78
2022/05/06 12:17:03;;;;;;;;;;;;;;;14.92;43.93;101933.22;5057459;28;20603;-75
2022/05/06 12:19:32;;;;;;;;;;;;;;;15.13;43.44;101937.97;5063438;28;20404;-74
2022/05/06 12:22:02;;;;;;;;;;;;;;;15.49;41.36;101938.91;5062197;28;19924;-75
2022/05/06 12:24:37;;;;;;;;;;;;;;;15.34;42.36;101927.91;5059510;28;20003;-74
2022/05/06 12:27:03;;;;;;;;;;;;;;;15.07;43.80;101936.34;5064906;28;19920;-74
2022/05/06 12:29:34;;;;;;;;;;;;;;;15.16;42.61;101936.16;5061153;28;19929;-74
2022/05/06 12:32:00;;;;;;;;;;;;;;;15.16;42.70;101938.78;5065079;28;19924;-75
2022/05/06 12:34:29;;;;;;;;;;;;;;;15.28;40.63;101927.19;5066889;28;19916;-74
2022/05/06 12:37:07;;;;;;;;;;;;;;;15.16;42.07;101928.31;5071960;28;20003;-78
2022/05/06 12:39:38;;;;;;;;;;;;;;;15.06;43.92;101920.69;5063672;28;19920;-79
2022/05/06 12:42:11;;;;;;;;;;;;;;;14.96;47.19;101922.63;5070240;28;19929;-82
2022/05/06 12:44:36;;;;;;;;;;;;;;;15.06;44.34;101923.31;5064430;28;20535;-82
2022/05/06 12:47:11;;;;;;;;;;;;;;;14.94;47.06;101921.81;5066464;28;19934;-81
2022/05/06 12:49:39;;;;;;;;;;;;;;;14.84;50.61;101928.13;5069495;28;20429;-82
2022/05/06 12:52:06;;;;;;;;;;;;;;;14.79;52.34;101927.34;5067751;28;20019;-82
2022/05/06 12:54:31;;;;;;;;;;;;;;;14.92;47.79;101926.19;5066867;28;20011;-79
2022/05/06 12:56:57;;;;;;;;;;;;;;;15.26;44.80;101922.00;5065521;28;20011;-82
2022/05/06 12:59:23;;;;;;;;;;;;;;;15.40;43.90;101922.53;5067236;28;19934;-82
2022/05/06 13:01:49;;;;;;;;;;;;;;;15.43;43.02;101918.97;5071981;28;19970;-79
2022/05/06 13:04:14;;;;;;;;;;;;;;;15.58;41.09;101912.53;5072886;28;19917;-82
2022/05/06 13:06:39;;;;;;;;;;;;;;;15.70;39.96;101907.88;5071502;28;19935;-82
2022/05/06 13:09:04;;;;;;;;;;;;;;;15.65;40.48;101911.50;5071317;28;19924;-81
2022/05/06 13:11:30;;;;;;;;;;;;;;;15.48;43.75;101908.41;5076948;28;20282;-81
2022/05/06 13:13:56;;;;;;;;;;;;;;;15.59;41.40;101902.03;5075037;28;20412;-81